Time;durP1;ratioP1;P1;durP2;ratioP2;P2;SDS_P1;SDS_P2;PMS_P1;PMS_P2;Temp;Humidity;BMP_temperature;BMP_pressure;BME280_temperature;BME280_humidity;BME280_pressure;Samples;Min_cycle;Max_cycle;Signal;HPM_P1;HPM_P2
2023/08/15 00:01:19;;;;;;;;;;;;;;;21.13;100.00;96441.25;5047764;28;19964;-75
2023/08/15 00:03:46;;;;;;;;;;;;;;;21.15;100.00;96443.66;5047258;28;20290;-78
2023/08/15 00:06:12;;;;;;;;;;;;;;;21.13;100.00;96427.94;5047139;28;19972;-77
2023/08/15 00:08:38;;;;;;;;;;;;;;;21.13;100.00;96430.59;5047279;28;19964;-69
2023/08/15 00:11:04;;;;;;;;;;;;;;;21.14;100.00;96420.72;5047573;28;19963;-73
2023/08/15 00:13:30;;;;;;;;;;;;;;;21.13;100.00;96416.47;5047334;28;19972;-70
2023/08/15 00:15:56;;;;;;;;;;;;;;;21.14;100.00;96439.38;5047308;28;19957;-71
2023/08/15 00:18:22;;;;;;;;;;;;;;;21.13;100.00;96435.94;5047433;28;19965;-71
2023/08/15 00:20:48;;;;;;;;;;;;;;;21.13;100.00;96432.47;5029456;28;20146;-71
2023/08/15 00:23:14;;;;;;;;;;;;;;;21.12;100.00;96423.66;5046689;28;19946;-72
2023/08/15 00:25:40;;;;;;;;;;;;;;;21.10;100.00;96428.47;5046609;28;19977;-71
2023/08/15 00:28:06;;;;;;;;;;;;;;;21.11;100.00;96427.41;5046714;28;19962;-77
2023/08/15 00:30:32;;;;;;;;;;;;;;;21.08;100.00;96423.47;5046751;28;20030;-70
2023/08/15 00:32:59;;;;;;;;;;;;;;;21.08;100.00;96425.31;5046995;28;19968;-70
2023/08/15 00:35:24;;;;;;;;;;;;;;;21.06;100.00;96416.81;5046749;28;19990;-70
2023/08/15 00:37:50;;;;;;;;;;;;;;;21.03;100.00;96409.38;5046991;28;19967;-70
2023/08/15 00:40:16;;;;;;;;;;;;;;;20.99;100.00;96401.16;5046978;28;19984;-70
2023/08/15 00:42:42;;;;;;;;;;;;;;;20.96;100.00;96406.28;5046928;28;19961;-70
2023/08/15 00:45:08;;;;;;;;;;;;;;;20.95;100.00;96408.13;5046169;28;20145;-70
2023/08/15 00:47:34;;;;;;;;;;;;;;;20.93;100.00;96418.28;5045714;28;19966;-73
2023/08/15 00:50:01;;;;;;;;;;;;;;;20.93;100.00;96414.84;5046723;28;19991;-70
2023/08/15 00:52:27;;;;;;;;;;;;;;;20.91;100.00;96403.66;5046127;28;19963;-70
2023/08/15 00:54:54;;;;;;;;;;;;;;;20.89;100.00;96411.94;5046790;28;19967;-69
2023/08/15 00:57:20;;;;;;;;;;;;;;;20.87;100.00;96408.75;5046109;28;20238;-69
2023/08/15 00:59:46;;;;;;;;;;;;;;;20.85;100.00;96411.72;5046141;28;19992;-70
2023/08/15 01:02:12;;;;;;;;;;;;;;;20.82;100.00;96414.16;5046151;28;20252;-70
2023/08/15 01:04:38;;;;;;;;;;;;;;;20.79;100.00;96412.06;5046600;28;19966;-76
2023/08/15 01:07:04;;;;;;;;;;;;;;;20.76;100.00;96416.09;5045752;28;19969;-75
2023/08/15 01:09:30;;;;;;;;;;;;;;;20.74;100.00;96434.22;5046181;28;19985;-74
2023/08/15 01:12:08;;;;;;;;;;;;;;;20.73;100.00;96427.31;5046131;28;19971;-75
2023/08/15 01:14:40;;;;;;;;;;;;;;;20.70;100.00;96429.75;5046236;28;19964;-73
2023/08/15 01:17:06;;;;;;;;;;;;;;;20.67;100.00;96423.13;5046171;28;19966;-76
2023/08/15 01:19:32;;;;;;;;;;;;;;;20.63;100.00;96417.56;5045679;28;20136;-76
2023/08/15 01:21:59;;;;;;;;;;;;;;;20.62;100.00;96412.50;5046216;28;20030;-77
2023/08/15 01:24:25;;;;;;;;;;;;;;;20.58;100.00;96411.47;5046126;28;19961;-74
2023/08/15 01:26:51;;;;;;;;;;;;;;;20.57;100.00;96412.53;5045762;28;19993;-73
2023/08/15 01:29:17;;;;;;;;;;;;;;;20.53;100.00;96406.19;5045630;28;20245;-73
2023/08/15 01:31:46;;;;;;;;;;;;;;;20.49;100.00;96405.94;5045610;28;20234;-73
2023/08/15 01:34:20;;;;;;;;;;;;;;;20.47;100.00;96403.59;5045590;28;19958;-74
2023/08/15 01:36:48;;;;;;;;;;;;;;;20.45;100.00;96407.59;5045116;28;19958;-73
2023/08/15 01:39:17;;;;;;;;;;;;;;;20.43;100.00;96402.56;5045638;28;20254;-74
2023/08/15 01:41:44;;;;;;;;;;;;;;;20.42;100.00;96411.63;5045716;28;19964;-75
2023/08/15 01:44:11;;;;;;;;;;;;;;;20.40;100.00;96402.31;5045643;28;19965;-75
2023/08/15 01:46:37;;;;;;;;;;;;;;;20.40;100.00;96419.09;5045584;28;19990;-74
2023/08/15 01:49:03;;;;;;;;;;;;;;;20.37;100.00;96405.53;5045726;28;19959;-74
2023/08/15 01:51:29;;;;;;;;;;;;;;;20.36;100.00;96409.28;5044906;28;19965;-75
2023/08/15 01:53:55;;;;;;;;;;;;;;;20.33;100.00;96402.66;5045082;28;19969;-76
2023/08/15 01:56:20;;;;;;;;;;;;;;;20.32;100.00;96401.06;5044644;28;20006;-78
2023/08/15 01:58:46;;;;;;;;;;;;;;;20.31;100.00;96398.69;5045138;28;19961;-71
2023/08/15 02:01:14;;;;;;;;;;;;;;;20.28;100.00;96390.19;5045122;28;19972;-70
2023/08/15 02:03:40;;;;;;;;;;;;;;;20.26;100.00;96395.00;5045103;28;19963;-78
2023/08/15 02:06:06;;;;;;;;;;;;;;;20.27;100.00;96393.13;5045094;28;19973;-79
2023/08/15 02:08:31;;;;;;;;;;;;;;;20.26;100.00;96395.00;5045060;28;20267;-79
2023/08/15 02:10:57;;;;;;;;;;;;;;;20.25;100.00;96392.63;5045126;28;19968;-79
2023/08/15 02:13:23;;;;;;;;;;;;;;;20.25;100.00;96397.94;5045774;28;20040;-78
2023/08/15 02:15:50;;;;;;;;;;;;;;;20.25;100.00;96397.94;5045048;28;19951;-79
2023/08/15 02:18:15;;;;;;;;;;;;;;;20.25;100.00;96395.28;5044575;28;19968;-76
2023/08/15 02:20:41;;;;;;;;;;;;;;;20.24;100.00;96401.66;5044650;28;19968;-75
2023/08/15 02:23:07;;;;;;;;;;;;;;;20.22;100.00;96396.63;5044616;28;19985;-75
2023/08/15 02:25:33;;;;;;;;;;;;;;;20.21;100.00;96381.72;5044599;28;20168;-75
2023/08/15 02:27:59;;;;;;;;;;;;;;;20.20;100.00;96385.47;5044823;28;20233;-73
2023/08/15 02:30:25;;;;;;;;;;;;;;;20.18;100.00;96384.97;5044667;28;20049;-73
2023/08/15 02:32:50;;;;;;;;;;;;;;;20.19;100.00;96391.06;5044664;28;19992;-74
2023/08/15 02:35:16;;;;;;;;;;;;;;;20.16;100.00;96400.41;5044626;28;19958;-73
2023/08/15 02:37:42;;;;;;;;;;;;;;;20.16;100.00;96404.94;5044621;28;20036;-73
2023/08/15 02:40:09;;;;;;;;;;;;;;;20.16;100.00;96397.75;5044653;28;19964;-70
2023/08/15 02:42:35;;;;;;;;;;;;;;;20.16;100.00;96403.09;5044581;28;19981;-70
2023/08/15 02:45:01;;;;;;;;;;;;;;;20.16;100.00;96394.28;5044057;28;20008;-70
2023/08/15 02:47:27;;;;;;;;;;;;;;;20.13;100.00;96398.31;5044573;28;19975;-70
2023/08/15 02:49:53;;;;;;;;;;;;;;;20.12;100.00;96404.72;5044568;28;20045;-70
2023/08/15 02:52:18;;;;;;;;;;;;;;;20.11;100.00;96400.44;5044193;28;20028;-70
2023/08/15 02:54:44;;;;;;;;;;;;;;;20.11;100.00;96391.69;5044190;28;19972;-77
2023/08/15 02:57:10;;;;;;;;;;;;;;;20.09;100.00;96386.63;5044201;28;20260;-77
2023/08/15 02:59:36;;;;;;;;;;;;;;;20.09;100.00;96394.63;5044260;28;19970;-78
2023/08/15 03:02:02;;;;;;;;;;;;;;;20.07;100.00;96386.94;5044529;28;20318;-81
2023/08/15 03:04:28;;;;;;;;;;;;;;;20.08;100.00;96387.72;5044546;28;19965;-81
2023/08/15 03:06:54;;;;;;;;;;;;;;;20.07;100.00;96396.75;5043870;28;20269;-81
2023/08/15 03:09:20;;;;;;;;;;;;;;;20.07;100.00;96389.59;5045784;28;19993;-80
2023/08/15 03:11:46;;;;;;;;;;;;;;;20.06;100.00;96392.53;5048544;28;19986;-80
2023/08/15 03:14:11;;;;;;;;;;;;;;;20.05;100.00;96380.28;5048481;28;19965;-75
2023/08/15 03:16:37;;;;;;;;;;;;;;;20.04;100.00;96387.47;5048426;28;19945;-78
2023/08/15 03:19:03;;;;;;;;;;;;;;;20.03;100.00;96383.25;5047954;28;19959;-78
2023/08/15 03:21:29;;;;;;;;;;;;;;;20.01;100.00;96382.72;5048596;28;19970;-78
2023/08/15 03:23:55;;;;;;;;;;;;;;;20.00;100.00;96381.13;5047932;28;19992;-78
2023/08/15 03:26:21;;;;;;;;;;;;;;;19.99;100.00;96378.72;5047913;28;19975;-78
2023/08/15 03:28:47;;;;;;;;;;;;;;;19.98;100.00;96385.13;5047893;28;19970;-79
2023/08/15 03:31:12;;;;;;;;;;;;;;;19.97;100.00;96381.69;5047936;28;19963;-72
2023/08/15 03:33:38;;;;;;;;;;;;;;;19.96;100.00;96388.06;5047823;28;19965;-73
2023/08/15 03:36:04;;;;;;;;;;;;;;;19.97;100.00;96388.84;5047628;28;19964;-76
2023/08/15 03:38:30;;;;;;;;;;;;;;;19.96;100.00;96389.94;5047891;28;20073;-74
2023/08/15 03:41:03;;;;;;;;;;;;;;;19.96;100.00;96393.41;5047992;28;20149;-76
2023/08/15 03:43:29;;;;;;;;;;;;;;;19.97;100.00;96400.31;5047938;28;19962;-76
2023/08/15 03:45:55;;;;;;;;;;;;;;;19.95;100.00;96388.34;5047381;28;19976;-76
2023/08/15 03:48:21;;;;;;;;;;;;;;;19.95;100.00;96391.81;5047880;28;19971;-75
2023/08/15 03:50:47;;;;;;;;;;;;;;;19.94;100.00;96394.75;5047491;28;20214;-73
2023/08/15 03:53:13;;;;;;;;;;;;;;;19.93;100.00;96393.97;5047899;28;19962;-73
2023/08/15 03:55:39;;;;;;;;;;;;;;;19.92;100.00;96399.56;5047157;28;19964;-73
2023/08/15 03:58:04;;;;;;;;;;;;;;;19.91;100.00;96403.28;5047449;28;19982;-73
2023/08/15 04:00:31;;;;;;;;;;;;;;;19.89;100.00;96408.13;5047491;28;19987;-73
2023/08/15 04:02:56;;;;;;;;;;;;;;;19.88;100.00;96415.28;5047593;28;19959;-73
2023/08/15 04:05:24;;;;;;;;;;;;;;;19.87;100.00;96419.81;5047534;28;19966;-72
2023/08/15 04:07:50;;;;;;;;;;;;;;;19.86;100.00;96430.72;5047421;28;19976;-77
2023/08/15 04:10:16;;;;;;;;;;;;;;;19.84;100.00;96427.56;5047495;28;20137;-71
2023/08/15 04:12:44;;;;;;;;;;;;;;;19.82;100.00;96430.50;5047377;28;19971;-74
2023/08/15 04:15:10;;;;;;;;;;;;;;;19.83;100.00;96434.75;5047375;28;19954;-75
2023/08/15 04:17:36;;;;;;;;;;;;;;;19.83;100.00;96434.75;5046881;28;19962;-74
2023/08/15 04:20:04;;;;;;;;;;;;;;;19.81;100.00;96431.56;5029490;28;19968;-74
2023/08/15 04:22:30;;;;;;;;;;;;;;;19.82;100.00;96435.03;5047195;28;19985;-75
2023/08/15 04:24:56;;;;;;;;;;;;;;;19.81;100.00;96438.78;5046946;28;20029;-75
2023/08/15 04:27:22;;;;;;;;;;;;;;;19.80;100.00;96442.47;5046848;28;19986;-77
2023/08/15 04:29:47;;;;;;;;;;;;;;;19.81;100.00;96444.09;5046867;28;19998;-79
2023/08/15 04:32:13;;;;;;;;;;;;;;;19.81;100.00;96439.56;5047055;28;19970;-78
2023/08/15 04:34:39;;;;;;;;;;;;;;;19.81;100.00;96441.44;5047042;28;19958;-78
2023/08/15 04:37:05;;;;;;;;;;;;;;;19.79;100.00;96441.69;5046863;28;19974;-79
2023/08/15 04:39:31;;;;;;;;;;;;;;;19.79;100.00;96448.88;5046927;28;20008;-79
2023/08/15 04:41:56;;;;;;;;;;;;;;;19.79;100.00;96456.88;5046808;28;19969;-78
2023/08/15 04:44:22;;;;;;;;;;;;;;;19.79;100.00;96457.66;5029214;28;19949;-70
2023/08/15 04:46:48;;;;;;;;;;;;;;;19.78;100.00;96461.41;5046322;28;19978;-73
2023/08/15 04:49:14;;;;;;;;;;;;;;;19.78;100.00;96453.44;5046725;28;19953;-73
2023/08/15 04:51:40;;;;;;;;;;;;;;;19.79;100.00;96459.53;5046385;28;20244;-74
2023/08/15 04:54:06;;;;;;;;;;;;;;;19.80;100.00;96461.09;5046318;28;20025;-73
2023/08/15 04:56:31;;;;;;;;;;;;;;;19.83;100.00;96465.91;5046601;28;20009;-72
2023/08/15 04:58:57;;;;;;;;;;;;;;;19.86;100.00;96463.47;5046362;28;19962;-72
2023/08/15 05:01:24;;;;;;;;;;;;;;;19.89;100.00;96474.66;5046607;28;19965;-72
2023/08/15 05:03:50;;;;;;;;;;;;;;;19.91;100.00;96469.81;5046345;28;19965;-77
2023/08/15 05:06:16;;;;;;;;;;;;;;;19.92;100.00;96479.41;5046442;28;20019;-70
2023/08/15 05:08:42;;;;;;;;;;;;;;;19.95;100.00;96481.50;5046351;28;19959;-69
2023/08/15 05:11:08;;;;;;;;;;;;;;;19.97;100.00;96482.03;5046305;28;19989;-70
2023/08/15 05:13:34;;;;;;;;;;;;;;;19.98;100.00;96491.59;5045752;28;19949;-70
2023/08/15 05:16:00;;;;;;;;;;;;;;;19.99;100.00;96496.66;5046252;28;19958;-70
2023/08/15 05:18:25;;;;;;;;;;;;;;;20.00;100.00;96492.91;5046458;28;20152;-70
2023/08/15 05:20:51;;;;;;;;;;;;;;;20.02;100.00;96497.97;5045787;28;20316;-70
2023/08/15 05:23:17;;;;;;;;;;;;;;;20.03;100.00;96505.69;5045768;28;20264;-73
2023/08/15 05:25:43;;;;;;;;;;;;;;;20.03;100.00;96510.19;5046086;28;19999;-76
2023/08/15 05:28:10;;;;;;;;;;;;;;;20.04;100.00;96507.25;5045683;28;19976;-76
2023/08/15 05:30:36;;;;;;;;;;;;;;;20.05;100.00;96511.53;5045947;28;19972;-76
2023/08/15 05:33:02;;;;;;;;;;;;;;;20.07;100.00;96516.56;5045062;28;19966;-75
2023/08/15 05:35:28;;;;;;;;;;;;;;;20.07;100.00;96506.72;5045352;28;20164;-74
2023/08/15 05:37:54;;;;;;;;;;;;;;;20.08;100.00;96515.50;5045786;28;20164;-75
2023/08/15 05:40:21;;;;;;;;;;;;;;;20.10;100.00;96512.56;5045799;28;19970;-70
2023/08/15 05:42:47;;;;;;;;;;;;;;;20.11;100.00;96509.59;5045763;28;19970;-73
2023/08/15 05:45:13;;;;;;;;;;;;;;;20.12;100.00;96505.09;5045231;28;19972;-73
2023/08/15 05:47:39;;;;;;;;;;;;;;;20.14;100.00;96508.25;5045700;28;19970;-72
2023/08/15 05:50:05;;;;;;;;;;;;;;;20.15;100.00;96510.66;5045196;28;20139;-72
2023/08/15 05:52:31;;;;;;;;;;;;;;;20.17;100.00;96518.38;5027564;28;19971;-72
2023/08/15 05:54:57;;;;;;;;;;;;;;;20.18;100.00;96509.28;5045384;28;19963;-72
2023/08/15 05:57:23;;;;;;;;;;;;;;;20.20;100.00;96512.47;5045130;28;19955;-72
2023/08/15 05:59:49;;;;;;;;;;;;;;;20.21;100.00;96512.19;5044876;28;19965;-76
2023/08/15 06:02:15;;;;;;;;;;;;;;;20.25;100.00;96523.09;5045145;28;19965;-71
2023/08/15 06:04:41;;;;;;;;;;;;;;;20.28;100.00;96517.22;5045232;28;20002;-71
2023/08/15 06:07:07;;;;;;;;;;;;;;;20.31;100.00;96518.53;5045260;28;19966;-71
2023/08/15 06:09:33;;;;;;;;;;;;;;;20.32;100.00;96525.44;5045242;28;20337;-71
2023/08/15 06:11:59;;;;;;;;;;;;;;;20.35;100.00;96523.03;5045153;28;19957;-70
2023/08/15 06:14:25;;;;;;;;;;;;;;;20.46;100.00;96531.72;5045094;28;20018;-72
2023/08/15 06:16:51;;;;;;;;;;;;;;;20.88;100.00;96533.78;5044863;28;19965;-72
2023/08/15 06:19:17;;;;;;;;;;;;;;;21.43;100.00;96540.69;5044468;28;19959;-76
2023/08/15 06:21:43;;;;;;;;;;;;;;;21.93;100.00;96533.09;5026305;28;20254;-74
2023/08/15 06:24:10;;;;;;;;;;;;;;;22.36;100.00;96533.03;5043844;28;19958;-74
2023/08/15 06:26:35;;;;;;;;;;;;;;;22.46;100.00;96545.44;5043391;28;19994;-74
2023/08/15 06:29:02;;;;;;;;;;;;;;;22.40;100.00;96544.72;5043883;28;20250;-74
2023/08/15 06:31:28;;;;;;;;;;;;;;;22.28;100.00;96541.72;5026184;28;19962;-74
2023/08/15 06:33:53;;;;;;;;;;;;;;;22.15;100.00;96545.88;5044182;28;19966;-73
2023/08/15 06:36:19;;;;;;;;;;;;;;;22.04;100.00;96545.22;5044221;28;19966;-73
2023/08/15 06:38:45;;;;;;;;;;;;;;;21.97;100.00;96542.13;5044133;28;19963;-76
2023/08/15 06:41:11;;;;;;;;;;;;;;;21.94;100.00;96540.00;5044045;28;19964;-76
2023/08/15 06:43:37;;;;;;;;;;;;;;;21.93;100.00;96543.00;5043582;28;19956;-76
2023/08/15 06:46:03;;;;;;;;;;;;;;;22.02;100.00;96544.72;5043591;28;20205;-76
2023/08/15 06:48:29;;;;;;;;;;;;;;;22.42;100.00;96550.56;5043822;28;19969;-76
2023/08/15 06:50:55;;;;;;;;;;;;;;;22.58;100.00;96543.09;5044307;28;20207;-76
2023/08/15 06:53:21;;;;;;;;;;;;;;;22.65;100.00;96543.50;5026178;28;20010;-77
2023/08/15 06:55:50;;;;;;;;;;;;;;;22.78;100.00;96555.31;5026549;28;19971;-72
2023/08/15 06:58:17;;;;;;;;;;;;;;;22.85;100.00;96569.13;5043956;28;19968;-74
2023/08/15 07:00:44;;;;;;;;;;;;;;;22.85;100.00;96569.13;5026548;28;19969;-74
2023/08/15 07:03:10;;;;;;;;;;;;;;;22.75;100.00;96566.63;5044366;28;20103;-74
2023/08/15 07:05:36;;;;;;;;;;;;;;;22.69;100.00;96587.28;5044428;28;19983;-74
2023/08/15 07:08:03;;;;;;;;;;;;;;;22.58;100.00;96587.75;5044346;28;20303;-74
2023/08/15 07:10:29;;;;;;;;;;;;;;;22.46;100.00;96570.28;5044424;28;19955;-74
2023/08/15 07:12:55;;;;;;;;;;;;;;;22.40;100.00;96595.47;5044649;28;19941;-70
2023/08/15 07:15:21;;;;;;;;;;;;;;;22.45;100.00;96583.94;5044601;28;19985;-73
2023/08/15 07:17:47;;;;;;;;;;;;;;;22.46;100.00;96593.53;5043843;28;19959;-73
2023/08/15 07:20:14;;;;;;;;;;;;;;;22.39;100.00;96607.28;5043911;28;19969;-73
2023/08/15 07:22:40;;;;;;;;;;;;;;;22.32;100.00;96595.34;5043966;28;20235;-73
2023/08/15 07:25:06;;;;;;;;;;;;;;;22.20;100.00;96599.22;5026211;28;19965;-73
2023/08/15 07:27:32;;;;;;;;;;;;;;;22.09;100.00;96593.25;5044173;28;19965;-71
2023/08/15 07:29:58;;;;;;;;;;;;;;;22.02;100.00;96584.78;5026456;28;19967;-80
2023/08/15 07:32:26;;;;;;;;;;;;;;;22.01;100.00;96569.84;5044170;28;20322;-72
2023/08/15 07:34:53;;;;;;;;;;;;;;;22.01;100.00;96579.75;5044092;28;19965;-72
2023/08/15 07:37:18;;;;;;;;;;;;;;;22.01;100.00;96582.41;5044239;28;19964;-72
2023/08/15 07:39:44;;;;;;;;;;;;;;;22.03;100.00;96578.38;5044196;28;20156;-72
2023/08/15 07:42:10;;;;;;;;;;;;;;;22.09;100.00;96584.44;5044458;28;20210;-72
2023/08/15 07:44:36;;;;;;;;;;;;;;;22.17;100.00;96583.75;5044406;28;20238;-73
2023/08/15 07:47:02;;;;;;;;;;;;;;;22.20;100.00;96588.53;5043992;28;20012;-73
2023/08/15 07:49:30;;;;;;;;;;;;;;;22.21;100.00;96586.66;5043718;28;19964;-82
2023/08/15 07:51:56;;;;;;;;;;;;;;;22.21;100.00;96590.13;5044068;28;19967;-73
2023/08/15 07:54:22;;;;;;;;;;;;;;;22.24;100.00;96599.47;5043764;28;19984;-72
2023/08/15 07:56:47;;;;;;;;;;;;;;;22.28;100.00;96595.16;5047263;28;19959;-73
2023/08/15 07:59:13;;;;;;;;;;;;;;;22.33;100.00;96581.72;5047883;28;20136;-73
2023/08/15 08:01:39;;;;;;;;;;;;;;;22.43;100.00;96588.78;5029613;28;19958;-73
2023/08/15 08:04:05;;;;;;;;;;;;;;;22.57;100.00;96591.50;5006011;28;19967;-74
2023/08/15 08:06:31;;;;;;;;;;;;;;;22.67;100.00;96591.34;5005931;28;20022;-74
2023/08/15 08:08:57;;;;;;;;;;;;;;;22.73;100.00;96592.84;5005869;28;20064;-77
2023/08/15 08:11:23;;;;;;;;;;;;;;;22.78;100.00;96591.97;5005519;28;20018;-74
2023/08/15 08:13:49;;;;;;;;;;;;;;;22.78;100.00;96594.63;4989162;28;19962;-74
2023/08/15 08:16:17;;;;;;;;;;;;;;;22.80;100.00;96601.28;5006077;28;19961;-74
2023/08/15 08:18:43;;;;;;;;;;;;;;;22.79;100.00;96590.91;5005658;28;19963;-74
2023/08/15 08:21:09;;;;;;;;;;;;;;;22.81;100.00;96600.19;5005279;28;19958;-74
2023/08/15 08:23:35;;;;;;;;;;;;;;;23.02;100.00;96597.22;5004970;28;20201;-74
2023/08/15 08:26:01;;;;;;;;;;;;;;;23.38;100.00;96599.25;5004928;28;19958;-72
2023/08/15 08:28:27;;;;;;;;;;;;;;;23.66;100.00;96597.34;4989306;28;20055;-77
2023/08/15 08:30:53;;;;;;;;;;;;;;;23.94;100.00;96600.03;4988688;28;19978;-78
2023/08/15 08:33:18;;;;;;;;;;;;;;;24.13;100.00;96586.50;5005109;28;19960;-76
2023/08/15 08:35:44;;;;;;;;;;;;;;;24.33;100.00;96583.38;5019250;28;20019;-76
2023/08/15 08:38:10;;;;;;;;;;;;;;;24.61;100.00;96589.47;5028969;28;20031;-76
2023/08/15 08:40:36;;;;;;;;;;;;;;;24.72;100.00;96581.97;5029175;28;19958;-75
2023/08/15 08:43:03;;;;;;;;;;;;;;;24.75;100.00;96580.56;5046697;28;20008;-76
2023/08/15 08:45:30;;;;;;;;;;;;;;;24.90;100.00;96572.94;5046809;28;20124;-71
2023/08/15 08:47:57;;;;;;;;;;;;;;;25.04;100.00;96580.09;5046599;28;19976;-68
2023/08/15 08:50:23;;;;;;;;;;;;;;;25.11;100.00;96585.78;5046387;28;19978;-68
2023/08/15 08:52:49;;;;;;;;;;;;;;;25.15;100.00;96583.28;5046349;28;19964;-68
2023/08/15 08:55:17;;;;;;;;;;;;;;;25.17;100.00;96595.28;5046311;28;19955;-68
2023/08/15 08:57:44;;;;;;;;;;;;;;;25.14;100.00;96573.69;5046219;28;19963;-68
2023/08/15 09:00:12;;;;;;;;;;;;;;;25.25;99.48;96551.63;5046286;28;19955;-68
2023/08/15 09:02:38;;;;;;;;;;;;;;;25.37;98.59;96559.09;5046310;28;19966;-72
2023/08/15 09:05:07;;;;;;;;;;;;;;;25.45;99.77;96570.97;5044978;28;19956;-76
2023/08/15 09:07:34;;;;;;;;;;;;;;;25.63;95.64;96543.06;5045135;28;19976;-74
2023/08/15 09:10:00;;;;;;;;;;;;;;;25.84;96.78;96558.59;5046563;28;19947;-73
2023/08/15 09:12:32;;;;;;;;;;;;;;;25.99;94.75;96552.78;5046471;28;19967;-73
2023/08/15 09:14:58;;;;;;;;;;;;;;;26.17;78.34;96466.81;5045860;28;19957;-73
2023/08/15 09:17:24;;;;;;;;;;;;;;;26.27;73.10;96450.31;5045929;28;20172;-73
2023/08/15 09:19:49;;;;;;;;;;;;;;;26.37;73.09;96463.44;5046150;28;20214;-73
2023/08/15 09:22:22;;;;;;;;;;;;;;;26.49;71.76;96462.78;5028419;28;20294;-72
2023/08/15 09:24:49;;;;;;;;;;;;;;;26.62;76.90;96488.72;5045988;28;19963;-71
2023/08/15 09:27:15;;;;;;;;;;;;;;;26.70;72.61;96479.81;5028046;28;19977;-71
2023/08/15 09:29:40;;;;;;;;;;;;;;;26.56;75.02;96508.78;5028014;28;19961;-72
2023/08/15 09:32:08;;;;;;;;;;;;;;;26.46;70.84;96487.63;5027550;28;20290;-72
2023/08/15 09:34:34;;;;;;;;;;;;;;;26.60;77.34;96527.81;5045759;28;19965;-71
2023/08/15 09:37:00;;;;;;;;;;;;;;;26.74;79.02;96528.41;5045949;28;19943;-70
2023/08/15 09:39:27;;;;;;;;;;;;;;;26.78;73.71;96521.28;5045914;28;19957;-70
2023/08/15 09:41:53;;;;;;;;;;;;;;;26.83;73.50;96523.00;5028239;28;19981;-69
2023/08/15 09:44:37;;;;;;;;;;;;;;;26.78;71.98;96529.34;5045294;28;20156;-75
2023/08/15 09:47:04;;;;;;;;;;;;;;;26.71;77.01;96562.13;5045682;28;20174;-73
2023/08/15 09:49:30;;;;;;;;;;;;;;;26.70;75.58;96544.41;5045384;28;19961;-73
2023/08/15 09:51:57;;;;;;;;;;;;;;;26.89;71.92;96538.66;5045531;28;20259;-76
2023/08/15 09:54:24;;;;;;;;;;;;;;;27.07;76.01;96550.16;5045258;28;20157;-75
2023/08/15 09:56:50;;;;;;;;;;;;;;;26.99;69.48;96536.75;5045230;28;19979;-74
2023/08/15 09:59:17;;;;;;;;;;;;;;;26.87;70.07;96540.88;5044714;28;20231;-74
2023/08/15 10:01:45;;;;;;;;;;;;;;;26.76;71.91;96561.16;5027375;28;19946;-74
2023/08/15 10:04:12;;;;;;;;;;;;;;;26.89;67.60;96549.41;5044884;28;19969;-75
2023/08/15 10:06:38;;;;;;;;;;;;;;;27.00;64.64;96557.16;5044739;28;19975;-74
2023/08/15 10:09:05;;;;;;;;;;;;;;;27.18;58.14;96536.34;5045203;28;20283;-74
2023/08/15 10:11:33;;;;;;;;;;;;;;;27.16;57.40;96550.13;5044788;28;19954;-74
2023/08/15 10:14:00;;;;;;;;;;;;;;;27.25;59.33;96561.66;5045026;28;19966;-75
2023/08/15 10:16:26;;;;;;;;;;;;;;;27.23;56.44;96553.13;5044969;28;19977;-72
2023/08/15 10:18:53;;;;;;;;;;;;;;;27.29;58.57;96564.50;5044095;28;19958;-71
2023/08/15 10:21:19;;;;;;;;;;;;;;;27.30;57.91;96568.81;5044936;28;20227;-71
2023/08/15 10:23:45;;;;;;;;;;;;;;;27.39;60.01;96564.16;5044929;28;19962;-71
2023/08/15 10:26:11;;;;;;;;;;;;;;;27.49;59.42;96574.56;5026913;28;19958;-71
2023/08/15 10:28:39;;;;;;;;;;;;;;;27.54;58.61;96577.06;5044674;28;19966;-71
2023/08/15 10:31:06;;;;;;;;;;;;;;;27.44;57.94;96576.66;5044673;28;20235;-72
2023/08/15 10:33:32;;;;;;;;;;;;;;;27.36;61.39;96578.25;5044770;28;19958;-71
2023/08/15 10:35:58;;;;;;;;;;;;;;;27.25;62.15;96588.59;5044461;28;19968;-70
2023/08/15 10:38:39;;;;;;;;;;;;;;;27.12;60.79;96587.66;5044283;28;19990;-73
2023/08/15 10:41:15;;;;;;;;;;;;;;;27.00;57.18;96582.16;5044453;28;19959;-73
2023/08/15 10:43:47;;;;;;;;;;;;;;;27.03;58.50;96589.59;5044455;28;19959;-73
2023/08/15 10:46:13;;;;;;;;;;;;;;;27.26;59.67;96605.56;5027287;28;19971;-74
2023/08/15 10:48:47;;;;;;;;;;;;;;;27.42;60.89;96598.50;5044106;28;20001;-73
2023/08/15 10:51:17;;;;;;;;;;;;;;;27.63;56.82;96595.88;5044811;28;19957;-73
2023/08/15 10:53:46;;;;;;;;;;;;;;;27.84;58.32;96593.22;5044935;28;19960;-73
2023/08/15 10:56:12;;;;;;;;;;;;;;;27.93;59.93;96607.50;5044557;28;20149;-71
2023/08/15 10:58:38;;;;;;;;;;;;;;;27.97;61.51;96602.25;5044741;28;19958;-70
2023/08/15 11:01:04;;;;;;;;;;;;;;;28.18;62.87;96607.66;5044185;28;19959;-71
2023/08/15 11:03:30;;;;;;;;;;;;;;;28.41;60.29;96594.63;5043998;28;19970;-71
2023/08/15 11:06:09;;;;;;;;;;;;;;;28.62;57.78;96608.13;5044458;28;19957;-71
2023/08/15 11:08:39;;;;;;;;;;;;;;;28.78;57.73;96604.81;5043690;28;19973;-71
2023/08/15 11:11:04;;;;;;;;;;;;;;;28.88;56.51;96604.41;5044302;28;19962;-76
2023/08/15 11:13:35;;;;;;;;;;;;;;;29.00;57.96;96598.22;5044071;28;19972;-71
2023/08/15 11:16:00;;;;;;;;;;;;;;;29.11;56.26;96612.94;5044184;28;19943;-72
2023/08/15 11:18:26;;;;;;;;;;;;;;;29.15;57.93;96611.13;5044259;28;19956;-73
2023/08/15 11:20:52;;;;;;;;;;;;;;;29.24;58.15;96609.13;5044139;28;20233;-73
2023/08/15 11:23:20;;;;;;;;;;;;;;;29.21;56.78;96606.28;5043967;28;19957;-73
2023/08/15 11:25:46;;;;;;;;;;;;;;;29.21;55.46;96619.78;5043760;28;19957;-73
2023/08/15 11:28:12;;;;;;;;;;;;;;;29.24;52.33;96594.84;5043601;28;19965;-73
2023/08/15 11:30:38;;;;;;;;;;;;;;;29.32;54.01;96599.34;5045698;28;20176;-73
2023/08/15 11:33:04;;;;;;;;;;;;;;;29.42;56.77;96607.00;5047904;28;19989;-74
2023/08/15 11:35:30;;;;;;;;;;;;;;;29.51;56.34;96598.78;5029988;28;19963;-73
2023/08/15 11:37:56;;;;;;;;;;;;;;;29.61;52.34;96582.13;5047727;28;19973;-73
2023/08/15 11:40:22;;;;;;;;;;;;;;;29.61;55.04;96601.06;5047851;28;19959;-73
2023/08/15 11:42:48;;;;;;;;;;;;;;;29.66;50.71;96587.31;5047774;28;19963;-71
2023/08/15 11:45:18;;;;;;;;;;;;;;;29.64;59.03;96607.69;5047948;28;19943;-71
2023/08/15 11:47:54;;;;;;;;;;;;;;;29.45;54.99;96600.94;5047313;28;20164;-70
2023/08/15 11:50:20;;;;;;;;;;;;;;;29.55;58.88;96607.81;5047494;28;20024;-67
2023/08/15 11:52:46;;;;;;;;;;;;;;;29.63;55.75;96601.50;5047317;28;20222;-74
2023/08/15 11:55:12;;;;;;;;;;;;;;;29.72;52.52;96587.91;5029886;28;19964;-75
2023/08/15 11:57:39;;;;;;;;;;;;;;;29.81;58.17;96604.78;5029546;28;19966;-74
2023/08/15 12:00:05;;;;;;;;;;;;;;;29.95;55.43;96591.69;5047355;28;19960;-74
2023/08/15 12:02:33;;;;;;;;;;;;;;;30.12;57.57;96590.66;5047341;28;19960;-74
2023/08/15 12:05:07;;;;;;;;;;;;;;;30.27;50.70;96578.31;5047608;28;20081;-74
2023/08/15 12:07:33;;;;;;;;;;;;;;;30.36;53.50;96583.63;5048089;28;20140;-71
2023/08/15 12:09:59;;;;;;;;;;;;;;;30.32;52.39;96577.31;5046874;28;19947;-75
2023/08/15 12:12:25;;;;;;;;;;;;;;;30.30;55.21;96595.81;5046858;28;20127;-75
2023/08/15 12:14:51;;;;;;;;;;;;;;;30.24;56.50;96605.28;5047362;28;19964;-75
2023/08/15 12:17:17;;;;;;;;;;;;;;;30.25;55.70;96596.81;5029373;28;20243;-74
2023/08/15 12:19:42;;;;;;;;;;;;;;;30.28;53.51;96588.03;5047170;28;19960;-74
2023/08/15 12:22:09;;;;;;;;;;;;;;;30.35;53.28;96593.66;5046816;28;19967;-76
2023/08/15 12:24:35;;;;;;;;;;;;;;;30.43;52.16;96591.97;5047198;28;19961;-71
2023/08/15 12:27:02;;;;;;;;;;;;;;;30.54;56.25;96600.38;5046849;28;19960;-74
2023/08/15 12:29:28;;;;;;;;;;;;;;;30.63;52.86;96584.78;5046820;28;19976;-75
2023/08/15 12:31:54;;;;;;;;;;;;;;;30.66;53.36;96589.50;5046935;28;19955;-75
2023/08/15 12:34:19;;;;;;;;;;;;;;;30.69;52.28;96582.59;5046853;28;19960;-74
2023/08/15 12:36:46;;;;;;;;;;;;;;;30.81;54.35;96595.31;5046868;28;19963;-75